sensor_id;sensor_type;location;lat;lon;timestamp;P1;durP1;ratioP1;P2;durP2;ratioP2
84655;SDS011;76548;52.130;5.428;2024-03-08T00:00:16;24.33;;;11.75;;
84655;SDS011;76548;52.130;5.428;2024-03-08T00:02:47;25.45;;;12.18;;
84655;SDS011;76548;52.130;5.428;2024-03-08T00:05:15;20.77;;;11.20;;
84655;SDS011;76548;52.130;5.428;2024-03-08T00:07:43;19.95;;;11.10;;
84655;SDS011;76548;52.130;5.428;2024-03-08T00:10:12;22.92;;;12.30;;
84655;SDS011;76548;52.130;5.428;2024-03-08T00:12:43;21.75;;;11.38;;
84655;SDS011;76548;52.130;5.428;2024-03-08T00:15:13;22.58;;;11.13;;
84655;SDS011;76548;52.130;5.428;2024-03-08T00:17:43;21.43;;;11.57;;
84655;SDS011;76548;52.130;5.428;2024-03-08T00:20:12;25.23;;;13.02;;
84655;SDS011;76548;52.130;5.428;2024-03-08T00:22:41;21.25;;;11.40;;
84655;SDS011;76548;52.130;5.428;2024-03-08T00:25:11;21.27;;;11.85;;
84655;SDS011;76548;52.130;5.428;2024-03-08T00:27:40;20.85;;;11.80;;
84655;SDS011;76548;52.130;5.428;2024-03-08T00:30:11;19.27;;;10.00;;
84655;SDS011;76548;52.130;5.428;2024-03-08T00:32:41;21.30;;;9.77;;
84655;SDS011;76548;52.130;5.428;2024-03-08T00:35:17;27.35;;;12.68;;
84655;SDS011;76548;52.130;5.428;2024-03-08T00:37:46;22.50;;;11.32;;
84655;SDS011;76548;52.130;5.428;2024-03-08T00:40:14;20.05;;;12.20;;
84655;SDS011;76548;52.130;5.428;2024-03-08T00:42:42;25.80;;;12.70;;
84655;SDS011;76548;52.130;5.428;2024-03-08T00:45:11;22.88;;;10.30;;
84655;SDS011;76548;52.130;5.428;2024-03-08T00:47:39;28.67;;;10.90;;
84655;SDS011;76548;52.130;5.428;2024-03-08T00:50:09;25.08;;;11.55;;
84655;SDS011;76548;52.130;5.428;2024-03-08T00:52:37;30.58;;;11.98;;
84655;SDS011;76548;52.130;5.428;2024-03-08T00:55:05;23.70;;;12.80;;
84655;SDS011;76548;52.130;5.428;2024-03-08T00:57:35;25.02;;;12.52;;
84655;SDS011;76548;52.130;5.428;2024-03-08T01:00:03;20.35;;;11.82;;
84655;SDS011;76548;52.130;5.428;2024-03-08T01:02:34;22.40;;;11.80;;
84655;SDS011;76548;52.130;5.428;2024-03-08T01:05:03;24.65;;;12.18;;
84655;SDS011;76548;52.130;5.428;2024-03-08T01:07:34;21.43;;;12.20;;
84655;SDS011;76548;52.130;5.428;2024-03-08T01:10:03;23.30;;;12.02;;
84655;SDS011;76548;52.130;5.428;2024-03-08T01:12:31;21.70;;;11.15;;
84655;SDS011;76548;52.130;5.428;2024-03-08T01:14:59;20.70;;;10.30;;
84655;SDS011;76548;52.130;5.428;2024-03-08T01:17:27;24.20;;;12.13;;
84655;SDS011;76548;52.130;5.428;2024-03-08T01:19:55;20.00;;;10.77;;
84655;SDS011;76548;52.130;5.428;2024-03-08T01:22:23;18.35;;;10.05;;
84655;SDS011;76548;52.130;5.428;2024-03-08T01:24:51;21.45;;;11.60;;
84655;SDS011;76548;52.130;5.428;2024-03-08T01:27:19;25.67;;;11.80;;
84655;SDS011;76548;52.130;5.428;2024-03-08T01:29:47;18.60;;;11.75;;
84655;SDS011;76548;52.130;5.428;2024-03-08T01:32:15;21.43;;;11.57;;
84655;SDS011;76548;52.130;5.428;2024-03-08T01:34:43;19.63;;;11.60;;
84655;SDS011;76548;52.130;5.428;2024-03-08T01:37:12;22.45;;;11.90;;
84655;SDS011;76548;52.130;5.428;2024-03-08T01:39:41;19.40;;;11.30;;
84655;SDS011;76548;52.130;5.428;2024-03-08T01:42:09;22.65;;;12.10;;
84655;SDS011;76548;52.130;5.428;2024-03-08T01:44:39;23.00;;;10.83;;
84655;SDS011;76548;52.130;5.428;2024-03-08T01:47:07;21.60;;;12.25;;
84655;SDS011;76548;52.130;5.428;2024-03-08T01:49:35;23.13;;;12.23;;
84655;SDS011;76548;52.130;5.428;2024-03-08T01:52:03;23.27;;;11.45;;
84655;SDS011;76548;52.130;5.428;2024-03-08T01:54:33;16.85;;;10.57;;
84655;SDS011;76548;52.130;5.428;2024-03-08T01:57:02;19.53;;;10.77;;
84655;SDS011;76548;52.130;5.428;2024-03-08T01:59:31;17.75;;;10.77;;
84655;SDS011;76548;52.130;5.428;2024-03-08T02:02:00;17.85;;;10.45;;
84655;SDS011;76548;52.130;5.428;2024-03-08T02:04:29;23.20;;;10.98;;
84655;SDS011;76548;52.130;5.428;2024-03-08T02:06:57;20.90;;;12.20;;
84655;SDS011;76548;52.130;5.428;2024-03-08T02:09:26;19.43;;;11.57;;
84655;SDS011;76548;52.130;5.428;2024-03-08T02:11:54;16.77;;;10.43;;
84655;SDS011;76548;52.130;5.428;2024-03-08T02:14:22;20.00;;;11.38;;
84655;SDS011;76548;52.130;5.428;2024-03-08T02:16:51;28.17;;;12.63;;
84655;SDS011;76548;52.130;5.428;2024-03-08T02:19:18;24.58;;;12.45;;
84655;SDS011;76548;52.130;5.428;2024-03-08T02:21:47;20.00;;;11.30;;
84655;SDS011;76548;52.130;5.428;2024-03-08T02:24:15;22.52;;;11.73;;
84655;SDS011;76548;52.130;5.428;2024-03-08T02:26:43;21.58;;;11.88;;
84655;SDS011;76548;52.130;5.428;2024-03-08T02:29:11;18.77;;;11.93;;
84655;SDS011;76548;52.130;5.428;2024-03-08T02:31:39;19.30;;;11.98;;
84655;SDS011;76548;52.130;5.428;2024-03-08T02:34:07;22.77;;;12.67;;
84655;SDS011;76548;52.130;5.428;2024-03-08T02:36:36;21.80;;;12.27;;
84655;SDS011;76548;52.130;5.428;2024-03-08T02:39:04;19.13;;;11.25;;
84655;SDS011;76548;52.130;5.428;2024-03-08T02:41:37;17.65;;;10.68;;
84655;SDS011;76548;52.130;5.428;2024-03-08T02:44:05;22.42;;;12.23;;
84655;SDS011;76548;52.130;5.428;2024-03-08T02:46:34;24.83;;;12.17;;
84655;SDS011;76548;52.130;5.428;2024-03-08T02:49:03;21.38;;;11.80;;
84655;SDS011;76548;52.130;5.428;2024-03-08T02:51:30;22.45;;;11.90;;
84655;SDS011;76548;52.130;5.428;2024-03-08T02:53:58;21.60;;;12.70;;
84655;SDS011;76548;52.130;5.428;2024-03-08T02:56:26;20.65;;;12.05;;
84655;SDS011;76548;52.130;5.428;2024-03-08T02:58:54;22.53;;;12.30;;
84655;SDS011;76548;52.130;5.428;2024-03-08T03:01:23;19.17;;;11.32;;
84655;SDS011;76548;52.130;5.428;2024-03-08T03:03:51;20.25;;;12.75;;
84655;SDS011;76548;52.130;5.428;2024-03-08T03:06:19;22.50;;;12.20;;
84655;SDS011;76548;52.130;5.428;2024-03-08T03:08:48;20.83;;;12.10;;
84655;SDS011;76548;52.130;5.428;2024-03-08T03:11:16;20.57;;;11.93;;
84655;SDS011;76548;52.130;5.428;2024-03-08T03:13:44;23.98;;;12.48;;
84655;SDS011;76548;52.130;5.428;2024-03-08T03:16:19;16.73;;;10.65;;
84655;SDS011;76548;52.130;5.428;2024-03-08T03:18:47;20.20;;;11.32;;
84655;SDS011;76548;52.130;5.428;2024-03-08T03:21:15;22.23;;;12.48;;
84655;SDS011;76548;52.130;5.428;2024-03-08T03:23:44;20.73;;;11.50;;
84655;SDS011;76548;52.130;5.428;2024-03-08T03:26:12;21.88;;;12.45;;
84655;SDS011;76548;52.130;5.428;2024-03-08T03:28:40;22.65;;;12.55;;
84655;SDS011;76548;52.130;5.428;2024-03-08T03:31:08;22.00;;;12.50;;
84655;SDS011;76548;52.130;5.428;2024-03-08T03:33:41;17.60;;;10.50;;
84655;SDS011;76548;52.130;5.428;2024-03-08T03:36:10;23.13;;;13.00;;
84655;SDS011;76548;52.130;5.428;2024-03-08T03:38:39;20.33;;;12.35;;
84655;SDS011;76548;52.130;5.428;2024-03-08T03:41:07;24.20;;;13.45;;
84655;SDS011;76548;52.130;5.428;2024-03-08T03:43:38;19.75;;;11.82;;
84655;SDS011;76548;52.130;5.428;2024-03-08T03:46:06;26.88;;;12.88;;
84655;SDS011;76548;52.130;5.428;2024-03-08T03:48:34;20.03;;;11.47;;
84655;SDS011;76548;52.130;5.428;2024-03-08T03:51:02;20.40;;;12.23;;
84655;SDS011;76548;52.130;5.428;2024-03-08T03:53:31;20.92;;;12.50;;
84655;SDS011;76548;52.130;5.428;2024-03-08T03:55:59;19.05;;;11.73;;
84655;SDS011;76548;52.130;5.428;2024-03-08T03:58:27;17.35;;;11.43;;
84655;SDS011;76548;52.130;5.428;2024-03-08T04:00:56;18.60;;;10.80;;
84655;SDS011;76548;52.130;5.428;2024-03-08T04:03:24;16.25;;;11.05;;
84655;SDS011;76548;52.130;5.428;2024-03-08T04:05:51;16.98;;;11.93;;
84655;SDS011;76548;52.130;5.428;2024-03-08T04:08:19;23.08;;;12.93;;
84655;SDS011;76548;52.130;5.428;2024-03-08T04:10:47;19.48;;;12.32;;
84655;SDS011;76548;52.130;5.428;2024-03-08T04:13:16;23.60;;;14.43;;
84655;SDS011;76548;52.130;5.428;2024-03-08T04:15:44;21.38;;;12.68;;
84655;SDS011;76548;52.130;5.428;2024-03-08T04:18:15;22.70;;;12.52;;
84655;SDS011;76548;52.130;5.428;2024-03-08T04:20:45;21.83;;;12.70;;
84655;SDS011;76548;52.130;5.428;2024-03-08T04:23:13;17.77;;;11.73;;
84655;SDS011;76548;52.130;5.428;2024-03-08T04:25:41;20.70;;;12.20;;
84655;SDS011;76548;52.130;5.428;2024-03-08T04:28:10;20.05;;;12.48;;
84655;SDS011;76548;52.130;5.428;2024-03-08T04:30:42;20.58;;;12.30;;
84655;SDS011;76548;52.130;5.428;2024-03-08T04:33:10;16.98;;;10.65;;
84655;SDS011;76548;52.130;5.428;2024-03-08T04:35:41;21.52;;;12.90;;
84655;SDS011;76548;52.130;5.428;2024-03-08T04:38:08;19.27;;;12.17;;
84655;SDS011;76548;52.130;5.428;2024-03-08T04:40:36;21.25;;;13.13;;
84655;SDS011;76548;52.130;5.428;2024-03-08T04:43:04;17.58;;;11.13;;
84655;SDS011;76548;52.130;5.428;2024-03-08T04:45:33;23.60;;;13.35;;
84655;SDS011;76548;52.130;5.428;2024-03-08T04:48:01;22.20;;;12.88;;
84655;SDS011;76548;52.130;5.428;2024-03-08T04:50:29;23.77;;;13.00;;
84655;SDS011;76548;52.130;5.428;2024-03-08T04:52:57;19.80;;;12.20;;
84655;SDS011;76548;52.130;5.428;2024-03-08T04:55:25;23.90;;;12.98;;
84655;SDS011;76548;52.130;5.428;2024-03-08T04:57:53;19.58;;;11.95;;
84655;SDS011;76548;52.130;5.428;2024-03-08T05:00:21;21.60;;;13.35;;
84655;SDS011;76548;52.130;5.428;2024-03-08T05:02:49;22.47;;;12.33;;
84655;SDS011;76548;52.130;5.428;2024-03-08T05:05:20;21.48;;;12.30;;
84655;SDS011;76548;52.130;5.428;2024-03-08T05:07:50;23.65;;;13.52;;
84655;SDS011;76548;52.130;5.428;2024-03-08T05:10:17;16.55;;;10.88;;
84655;SDS011;76548;52.130;5.428;2024-03-08T05:12:45;22.38;;;13.45;;
84655;SDS011;76548;52.130;5.428;2024-03-08T05:15:14;22.77;;;12.43;;
84655;SDS011;76548;52.130;5.428;2024-03-08T05:17:46;24.85;;;13.18;;
84655;SDS011;76548;52.130;5.428;2024-03-08T05:20:13;21.45;;;12.35;;
84655;SDS011;76548;52.130;5.428;2024-03-08T05:22:43;27.02;;;14.88;;
84655;SDS011;76548;52.130;5.428;2024-03-08T05:25:11;24.52;;;13.70;;
84655;SDS011;76548;52.130;5.428;2024-03-08T05:27:39;23.80;;;13.27;;
84655;SDS011;76548;52.130;5.428;2024-03-08T05:30:07;22.00;;;13.38;;
84655;SDS011;76548;52.130;5.428;2024-03-08T05:32:41;22.63;;;13.65;;
84655;SDS011;76548;52.130;5.428;2024-03-08T05:35:11;20.20;;;11.98;;
84655;SDS011;76548;52.130;5.428;2024-03-08T05:37:40;21.25;;;13.50;;
84655;SDS011;76548;52.130;5.428;2024-03-08T05:40:09;28.77;;;12.43;;
84655;SDS011;76548;52.130;5.428;2024-03-08T05:42:43;24.08;;;12.63;;
84655;SDS011;76548;52.130;5.428;2024-03-08T05:45:11;20.80;;;12.18;;
84655;SDS011;76548;52.130;5.428;2024-03-08T05:47:40;21.08;;;10.27;;
84655;SDS011;76548;52.130;5.428;2024-03-08T05:50:08;21.13;;;11.40;;
84655;SDS011;76548;52.130;5.428;2024-03-08T05:52:38;25.30;;;12.70;;
84655;SDS011;76548;52.130;5.428;2024-03-08T05:55:06;21.95;;;12.90;;
84655;SDS011;76548;52.130;5.428;2024-03-08T05:57:35;24.33;;;13.25;;
84655;SDS011;76548;52.130;5.428;2024-03-08T06:00:07;26.08;;;14.98;;
84655;SDS011;76548;52.130;5.428;2024-03-08T06:02:39;20.92;;;11.98;;
84655;SDS011;76548;52.130;5.428;2024-03-08T06:05:09;24.07;;;12.80;;
84655;SDS011;76548;52.130;5.428;2024-03-08T06:07:37;19.67;;;12.57;;
84655;SDS011;76548;52.130;5.428;2024-03-08T06:10:11;17.85;;;11.25;;
84655;SDS011;76548;52.130;5.428;2024-03-08T06:12:40;18.02;;;11.93;;
84655;SDS011;76548;52.130;5.428;2024-03-08T06:15:12;20.27;;;12.60;;
84655;SDS011;76548;52.130;5.428;2024-03-08T06:17:42;25.60;;;13.03;;
84655;SDS011;76548;52.130;5.428;2024-03-08T06:20:10;22.77;;;13.52;;
84655;SDS011;76548;52.130;5.428;2024-03-08T06:22:41;21.27;;;12.63;;
84655;SDS011;76548;52.130;5.428;2024-03-08T06:25:09;18.70;;;12.27;;
84655;SDS011;76548;52.130;5.428;2024-03-08T06:27:41;22.05;;;13.07;;
84655;SDS011;76548;52.130;5.428;2024-03-08T06:30:10;21.50;;;12.83;;
84655;SDS011;76548;52.130;5.428;2024-03-08T06:32:38;23.58;;;14.43;;
84655;SDS011;76548;52.130;5.428;2024-03-08T06:35:06;22.88;;;13.38;;
84655;SDS011;76548;52.130;5.428;2024-03-08T06:37:35;21.52;;;13.65;;
84655;SDS011;76548;52.130;5.428;2024-03-08T06:40:06;19.70;;;12.30;;
84655;SDS011;76548;52.130;5.428;2024-03-08T06:42:35;22.17;;;12.90;;
84655;SDS011;76548;52.130;5.428;2024-03-08T06:45:03;18.55;;;11.50;;
84655;SDS011;76548;52.130;5.428;2024-03-08T06:47:32;21.70;;;12.98;;
84655;SDS011;76548;52.130;5.428;2024-03-08T06:50:00;20.92;;;13.10;;
84655;SDS011;76548;52.130;5.428;2024-03-08T06:52:28;21.10;;;13.88;;
84655;SDS011;76548;52.130;5.428;2024-03-08T06:54:56;19.58;;;12.70;;
84655;SDS011;76548;52.130;5.428;2024-03-08T06:57:24;23.50;;;13.43;;
84655;SDS011;76548;52.130;5.428;2024-03-08T06:59:53;23.00;;;13.32;;
84655;SDS011;76548;52.130;5.428;2024-03-08T07:02:21;25.50;;;13.93;;
84655;SDS011;76548;52.130;5.428;2024-03-08T07:04:51;20.60;;;13.17;;
84655;SDS011;76548;52.130;5.428;2024-03-08T07:07:20;23.35;;;13.90;;
84655;SDS011;76548;52.130;5.428;2024-03-08T07:09:48;19.80;;;12.60;;
84655;SDS011;76548;52.130;5.428;2024-03-08T07:12:16;29.05;;;13.32;;
84655;SDS011;76548;52.130;5.428;2024-03-08T07:14:44;24.13;;;13.75;;
84655;SDS011;76548;52.130;5.428;2024-03-08T07:17:12;22.40;;;13.47;;
84655;SDS011;76548;52.130;5.428;2024-03-08T07:19:40;23.40;;;12.82;;
84655;SDS011;76548;52.130;5.428;2024-03-08T07:22:08;21.30;;;14.48;;
84655;SDS011;76548;52.130;5.428;2024-03-08T07:24:36;24.65;;;13.50;;
84655;SDS011;76548;52.130;5.428;2024-03-08T07:27:04;23.48;;;15.23;;
84655;SDS011;76548;52.130;5.428;2024-03-08T07:29:32;29.93;;;17.00;;
84655;SDS011;76548;52.130;5.428;2024-03-08T07:32:01;23.38;;;13.52;;
84655;SDS011;76548;52.130;5.428;2024-03-08T07:34:39;20.27;;;12.40;;
84655;SDS011;76548;52.130;5.428;2024-03-08T07:37:07;23.92;;;12.77;;
84655;SDS011;76548;52.130;5.428;2024-03-08T07:39:38;24.73;;;13.23;;
84655;SDS011;76548;52.130;5.428;2024-03-08T07:42:06;23.70;;;14.67;;
84655;SDS011;76548;52.130;5.428;2024-03-08T07:44:34;26.10;;;14.52;;
84655;SDS011;76548;52.130;5.428;2024-03-08T07:47:02;25.58;;;14.75;;
84655;SDS011;76548;52.130;5.428;2024-03-08T07:49:30;21.20;;;13.80;;
84655;SDS011;76548;52.130;5.428;2024-03-08T07:51:58;20.10;;;14.02;;
84655;SDS011;76548;52.130;5.428;2024-03-08T07:54:26;22.77;;;14.67;;
84655;SDS011;76548;52.130;5.428;2024-03-08T07:56:54;21.83;;;13.80;;
84655;SDS011;76548;52.130;5.428;2024-03-08T07:59:22;22.02;;;14.25;;
84655;SDS011;76548;52.130;5.428;2024-03-08T08:01:50;22.08;;;14.02;;
84655;SDS011;76548;52.130;5.428;2024-03-08T08:04:18;22.58;;;13.65;;
84655;SDS011;76548;52.130;5.428;2024-03-08T08:06:52;20.50;;;13.60;;
84655;SDS011;76548;52.130;5.428;2024-03-08T08:09:22;23.38;;;14.60;;
84655;SDS011;76548;52.130;5.428;2024-03-08T08:14:45;23.20;;;14.15;;
84655;SDS011;76548;52.130;5.428;2024-03-08T08:17:14;24.02;;;13.68;;
84655;SDS011;76548;52.130;5.428;2024-03-08T08:19:41;24.05;;;13.90;;
84655;SDS011;76548;52.130;5.428;2024-03-08T08:22:10;27.38;;;15.63;;
84655;SDS011;76548;52.130;5.428;2024-03-08T08:24:38;21.23;;;13.63;;
84655;SDS011;76548;52.130;5.428;2024-03-08T08:27:07;28.57;;;15.70;;
84655;SDS011;76548;52.130;5.428;2024-03-08T08:29:36;22.67;;;15.43;;
84655;SDS011;76548;52.130;5.428;2024-03-08T08:32:04;23.73;;;14.52;;
84655;SDS011;76548;52.130;5.428;2024-03-08T08:34:32;22.30;;;13.50;;
84655;SDS011;76548;52.130;5.428;2024-03-08T08:37:00;26.13;;;15.45;;
84655;SDS011;76548;52.130;5.428;2024-03-08T08:39:28;24.67;;;14.90;;
84655;SDS011;76548;52.130;5.428;2024-03-08T08:41:56;22.33;;;15.10;;
84655;SDS011;76548;52.130;5.428;2024-03-08T08:44:25;27.98;;;15.20;;
84655;SDS011;76548;52.130;5.428;2024-03-08T08:46:53;26.20;;;16.00;;
84655;SDS011;76548;52.130;5.428;2024-03-08T08:49:35;23.05;;;15.52;;
84655;SDS011;76548;52.130;5.428;2024-03-08T08:52:03;27.43;;;14.67;;
84655;SDS011;76548;52.130;5.428;2024-03-08T08:54:42;25.15;;;14.77;;
84655;SDS011;76548;52.130;5.428;2024-03-08T08:57:16;21.17;;;14.75;;
84655;SDS011;76548;52.130;5.428;2024-03-08T08:59:44;20.38;;;14.25;;
84655;SDS011;76548;52.130;5.428;2024-03-08T09:02:12;20.13;;;12.63;;
84655;SDS011;76548;52.130;5.428;2024-03-08T09:04:44;21.08;;;15.10;;
84655;SDS011;76548;52.130;5.428;2024-03-08T09:07:12;23.23;;;14.98;;
84655;SDS011;76548;52.130;5.428;2024-03-08T09:09:42;20.38;;;13.85;;
84655;SDS011;76548;52.130;5.428;2024-03-08T09:12:10;22.05;;;13.85;;
84655;SDS011;76548;52.130;5.428;2024-03-08T09:14:41;20.77;;;13.67;;
84655;SDS011;76548;52.130;5.428;2024-03-08T09:17:09;22.20;;;15.20;;
84655;SDS011;76548;52.130;5.428;2024-03-08T09:19:37;23.33;;;15.02;;
84655;SDS011;76548;52.130;5.428;2024-03-08T09:22:07;22.10;;;14.80;;
84655;SDS011;76548;52.130;5.428;2024-03-08T09:24:34;21.88;;;15.57;;
84655;SDS011;76548;52.130;5.428;2024-03-08T09:27:02;20.43;;;14.07;;
84655;SDS011;76548;52.130;5.428;2024-03-08T09:29:30;19.90;;;13.85;;
84655;SDS011;76548;52.130;5.428;2024-03-08T09:31:58;23.55;;;14.82;;
84655;SDS011;76548;52.130;5.428;2024-03-08T09:34:26;25.33;;;15.63;;
84655;SDS011;76548;52.130;5.428;2024-03-08T09:37:03;21.33;;;13.87;;
84655;SDS011;76548;52.130;5.428;2024-03-08T09:39:31;21.52;;;14.65;;
84655;SDS011;76548;52.130;5.428;2024-03-08T09:42:01;23.67;;;14.57;;
84655;SDS011;76548;52.130;5.428;2024-03-08T09:44:29;17.73;;;12.68;;
84655;SDS011;76548;52.130;5.428;2024-03-08T09:46:59;23.05;;;14.18;;
84655;SDS011;76548;52.130;5.428;2024-03-08T09:49:29;21.13;;;15.57;;
84655;SDS011;76548;52.130;5.428;2024-03-08T09:51:57;21.80;;;15.10;;
84655;SDS011;76548;52.130;5.428;2024-03-08T09:54:25;25.98;;;15.20;;
84655;SDS011;76548;52.130;5.428;2024-03-08T09:56:54;18.63;;;13.15;;
84655;SDS011;76548;52.130;5.428;2024-03-08T09:59:22;23.73;;;14.25;;
84655;SDS011;76548;52.130;5.428;2024-03-08T10:01:50;25.53;;;14.70;;
84655;SDS011;76548;52.130;5.428;2024-03-08T10:04:23;19.35;;;13.77;;
84655;SDS011;76548;52.130;5.428;2024-03-08T10:06:51;20.20;;;13.35;;
84655;SDS011;76548;52.130;5.428;2024-03-08T10:09:19;21.48;;;14.75;;
84655;SDS011;76548;52.130;5.428;2024-03-08T10:11:48;19.35;;;12.10;;
84655;SDS011;76548;52.130;5.428;2024-03-08T10:14:16;20.33;;;15.09;;
84655;SDS011;76548;52.130;5.428;2024-03-08T10:16:45;24.95;;;15.80;;
84655;SDS011;76548;52.130;5.428;2024-03-08T10:19:14;20.77;;;13.70;;
84655;SDS011;76548;52.130;5.428;2024-03-08T10:21:52;18.58;;;12.40;;
84655;SDS011;76548;52.130;5.428;2024-03-08T10:24:27;20.30;;;12.85;;
84655;SDS011;76548;52.130;5.428;2024-03-08T10:26:59;18.97;;;12.70;;
84655;SDS011;76548;52.130;5.428;2024-03-08T10:29:28;21.33;;;13.82;;
84655;SDS011;76548;52.130;5.428;2024-03-08T10:31:59;24.80;;;13.50;;
84655;SDS011;76548;52.130;5.428;2024-03-08T10:34:27;18.05;;;13.43;;
84655;SDS011;76548;52.130;5.428;2024-03-08T10:40:07;19.87;;;12.77;;
84655;SDS011;76548;52.130;5.428;2024-03-08T10:42:40;17.43;;;12.40;;
84655;SDS011;76548;52.130;5.428;2024-03-08T10:45:15;15.77;;;11.20;;
84655;SDS011;76548;52.130;5.428;2024-03-08T10:47:49;13.45;;;11.35;;
84655;SDS011;76548;52.130;5.428;2024-03-08T10:50:20;15.25;;;11.70;;
84655;SDS011;76548;52.130;5.428;2024-03-08T10:52:52;19.73;;;13.40;;
84655;SDS011;76548;52.130;5.428;2024-03-08T10:55:20;20.33;;;13.52;;
84655;SDS011;76548;52.130;5.428;2024-03-08T10:57:49;17.30;;;12.43;;
84655;SDS011;76548;52.130;5.428;2024-03-08T11:00:18;22.33;;;13.35;;
84655;SDS011;76548;52.130;5.428;2024-03-08T11:03:00;19.20;;;12.02;;
84655;SDS011;76548;52.130;5.428;2024-03-08T11:05:31;15.30;;;11.73;;
84655;SDS011;76548;52.130;5.428;2024-03-08T11:10:51;18.13;;;13.23;;
84655;SDS011;76548;52.130;5.428;2024-03-08T11:18:53;18.33;;;13.07;;
84655;SDS011;76548;52.130;5.428;2024-03-08T11:21:23;15.80;;;12.40;;
84655;SDS011;76548;52.130;5.428;2024-03-08T11:24:07;16.90;;;12.87;;
84655;SDS011;76548;52.130;5.428;2024-03-08T11:26:39;16.37;;;11.50;;
84655;SDS011;76548;52.130;5.428;2024-03-08T11:34:32;16.30;;;10.73;;
84655;SDS011;76548;52.130;5.428;2024-03-08T11:37:03;17.42;;;11.75;;
84655;SDS011;76548;52.130;5.428;2024-03-08T11:39:39;15.97;;;10.87;;
84655;SDS011;76548;52.130;5.428;2024-03-08T11:42:08;14.98;;;11.02;;
84655;SDS011;76548;52.130;5.428;2024-03-08T11:44:37;16.57;;;11.50;;
84655;SDS011;76548;52.130;5.428;2024-03-08T11:47:08;15.53;;;11.50;;
84655;SDS011;76548;52.130;5.428;2024-03-08T11:49:38;15.93;;;9.30;;
84655;SDS011;76548;52.130;5.428;2024-03-08T11:52:12;12.60;;;9.50;;
84655;SDS011;76548;52.130;5.428;2024-03-08T11:54:41;12.40;;;9.93;;
84655;SDS011;76548;52.130;5.428;2024-03-08T11:57:09;16.05;;;10.43;;
84655;SDS011;76548;52.130;5.428;2024-03-08T11:59:37;9.80;;;7.83;;
84655;SDS011;76548;52.130;5.428;2024-03-08T12:02:06;11.73;;;8.90;;
84655;SDS011;76548;52.130;5.428;2024-03-08T12:04:34;12.10;;;8.65;;
84655;SDS011;76548;52.130;5.428;2024-03-08T12:07:03;13.02;;;10.00;;
84655;SDS011;76548;52.130;5.428;2024-03-08T12:09:36;15.52;;;9.85;;
84655;SDS011;76548;52.130;5.428;2024-03-08T12:12:05;10.40;;;9.30;;
84655;SDS011;76548;52.130;5.428;2024-03-08T12:14:34;14.13;;;9.52;;
84655;SDS011;76548;52.130;5.428;2024-03-08T12:17:03;9.88;;;8.57;;
84655;SDS011;76548;52.130;5.428;2024-03-08T12:19:33;11.25;;;9.25;;
84655;SDS011;76548;52.130;5.428;2024-03-08T12:22:08;9.70;;;7.93;;
84655;SDS011;76548;52.130;5.428;2024-03-08T12:24:40;10.68;;;8.82;;
84655;SDS011;76548;52.130;5.428;2024-03-08T12:27:18;12.40;;;9.53;;
84655;SDS011;76548;52.130;5.428;2024-03-08T12:29:47;12.68;;;9.30;;
84655;SDS011;76548;52.130;5.428;2024-03-08T12:32:15;12.88;;;8.90;;
84655;SDS011;76548;52.130;5.428;2024-03-08T12:34:43;13.70;;;9.15;;
84655;SDS011;76548;52.130;5.428;2024-03-08T12:37:12;10.80;;;8.27;;
84655;SDS011;76548;52.130;5.428;2024-03-08T12:39:40;13.02;;;9.75;;
84655;SDS011;76548;52.130;5.428;2024-03-08T12:42:12;11.63;;;8.63;;
84655;SDS011;76548;52.130;5.428;2024-03-08T12:44:41;12.18;;;10.00;;
84655;SDS011;76548;52.130;5.428;2024-03-08T12:47:10;12.57;;;9.80;;
84655;SDS011;76548;52.130;5.428;2024-03-08T12:49:38;11.10;;;9.00;;
84655;SDS011;76548;52.130;5.428;2024-03-08T12:52:08;11.55;;;9.93;;
84655;SDS011;76548;52.130;5.428;2024-03-08T12:54:38;15.52;;;10.05;;
84655;SDS011;76548;52.130;5.428;2024-03-08T12:57:05;19.02;;;11.13;;
84655;SDS011;76548;52.130;5.428;2024-03-08T12:59:35;12.03;;;9.63;;
84655;SDS011;76548;52.130;5.428;2024-03-08T13:02:02;12.48;;;9.93;;
84655;SDS011;76548;52.130;5.428;2024-03-08T13:04:33;11.02;;;9.70;;
84655;SDS011;76548;52.130;5.428;2024-03-08T13:07:00;15.50;;;10.85;;
84655;SDS011;76548;52.130;5.428;2024-03-08T13:09:28;12.77;;;10.02;;
84655;SDS011;76548;52.130;5.428;2024-03-08T13:11:56;16.83;;;10.77;;
84655;SDS011;76548;52.130;5.428;2024-03-08T13:14:28;14.85;;;10.27;;
84655;SDS011;76548;52.130;5.428;2024-03-08T13:17:01;14.95;;;9.75;;
84655;SDS011;76548;52.130;5.428;2024-03-08T13:19:31;16.20;;;10.27;;
84655;SDS011;76548;52.130;5.428;2024-03-08T13:21:59;12.73;;;10.13;;
84655;SDS011;76548;52.130;5.428;2024-03-08T13:24:27;13.35;;;10.32;;
84655;SDS011;76548;52.130;5.428;2024-03-08T13:26:56;14.60;;;10.55;;
84655;SDS011;76548;52.130;5.428;2024-03-08T13:29:26;14.20;;;11.32;;
84655;SDS011;76548;52.130;5.428;2024-03-08T13:31:55;18.90;;;11.30;;
84655;SDS011;76548;52.130;5.428;2024-03-08T13:34:26;14.32;;;10.05;;
84655;SDS011;76548;52.130;5.428;2024-03-08T13:36:57;11.60;;;10.18;;
84655;SDS011;76548;52.130;5.428;2024-03-08T13:39:28;12.50;;;10.48;;
84655;SDS011;76548;52.130;5.428;2024-03-08T13:41:58;10.07;;;9.03;;
84655;SDS011;76548;52.130;5.428;2024-03-08T13:44:26;18.80;;;10.68;;
84655;SDS011;76548;52.130;5.428;2024-03-08T13:46:55;13.13;;;10.25;;
84655;SDS011;76548;52.130;5.428;2024-03-08T13:49:25;13.55;;;10.27;;
84655;SDS011;76548;52.130;5.428;2024-03-08T13:51:53;13.27;;;9.93;;
84655;SDS011;76548;52.130;5.428;2024-03-08T13:54:22;10.90;;;8.88;;
84655;SDS011;76548;52.130;5.428;2024-03-08T13:56:50;14.82;;;10.57;;
84655;SDS011;76548;52.130;5.428;2024-03-08T13:59:21;14.05;;;11.38;;
84655;SDS011;76548;52.130;5.428;2024-03-08T14:01:51;12.95;;;10.63;;
84655;SDS011;76548;52.130;5.428;2024-03-08T14:04:19;12.70;;;9.60;;
84655;SDS011;76548;52.130;5.428;2024-03-08T14:06:47;13.18;;;10.65;;
84655;SDS011;76548;52.130;5.428;2024-03-08T14:09:16;13.38;;;10.05;;
84655;SDS011;76548;52.130;5.428;2024-03-08T14:11:44;13.32;;;10.75;;
84655;SDS011;76548;52.130;5.428;2024-03-08T14:14:12;17.00;;;12.00;;
84655;SDS011;76548;52.130;5.428;2024-03-08T14:16:40;12.68;;;10.65;;
84655;SDS011;76548;52.130;5.428;2024-03-08T14:19:08;12.95;;;9.93;;
84655;SDS011;76548;52.130;5.428;2024-03-08T14:21:37;14.50;;;9.93;;
84655;SDS011;76548;52.130;5.428;2024-03-08T14:24:06;16.05;;;9.45;;
84655;SDS011;76548;52.130;5.428;2024-03-08T14:26:34;14.30;;;9.73;;
84655;SDS011;76548;52.130;5.428;2024-03-08T14:29:05;16.35;;;11.45;;
84655;SDS011;76548;52.130;5.428;2024-03-08T14:31:33;11.73;;;10.40;;
84655;SDS011;76548;52.130;5.428;2024-03-08T14:34:03;8.38;;;7.53;;
84655;SDS011;76548;52.130;5.428;2024-03-08T14:36:31;15.20;;;11.63;;
84655;SDS011;76548;52.130;5.428;2024-03-08T14:38:59;15.68;;;11.35;;
84655;SDS011;76548;52.130;5.428;2024-03-08T14:41:27;15.65;;;11.25;;
84655;SDS011;76548;52.130;5.428;2024-03-08T14:43:55;15.57;;;11.73;;
84655;SDS011;76548;52.130;5.428;2024-03-08T14:46:24;14.32;;;11.25;;
84655;SDS011;76548;52.130;5.428;2024-03-08T14:48:52;15.60;;;9.63;;
84655;SDS011;76548;52.130;5.428;2024-03-08T14:51:20;14.90;;;11.20;;
84655;SDS011;76548;52.130;5.428;2024-03-08T14:53:49;12.63;;;9.35;;